Time;durP1;ratioP1;P1;durP2;ratioP2;P2;SDS_P1;SDS_P2;PMS_P1;PMS_P2;Temp;Humidity;BMP_temperature;BMP_pressure;BME280_temperature;BME280_humidity;BME280_pressure;Samples;Min_cycle;Max_cycle;Signal;HPM_P1;HPM_P2
2022/12/08 00:01:04;;;;;;;7.53;1.05;;;3.40;99.90;;;;;;5072960;28;20590;-69
2022/12/08 00:03:30;;;;;;;3.88;0.90;;;3.50;99.90;;;;;;5079503;28;20076;-69
2022/12/08 00:11:24;;;;;;;1.95;0.55;;;3.00;99.90;;;;;;5091865;28;20036;-69
2022/12/08 00:13:50;;;;;;;1.88;0.38;;;2.90;99.90;;;;;;5077424;28;20051;-69
2022/12/08 00:16:16;;;;;;;2.90;0.47;;;2.80;99.90;;;;;;5075989;28;20051;-69
2022/12/08 00:18:41;;;;;;;2.83;0.52;;;2.80;99.90;;;;;;5044833;28;20047;-69
2022/12/08 00:21:07;;;;;;;4.53;0.70;;;2.70;99.90;;;;;;5076054;28;20036;-70
2022/12/08 00:23:32;;;;;;;3.40;0.88;;;2.80;99.90;;;;;;5077797;28;20101;-69
2022/12/08 00:26:05;;;;;;;3.65;1.10;;;2.70;99.90;;;;;;5079135;28;20398;-69
2022/12/08 00:28:32;;;;;;;4.18;0.73;;;2.70;99.90;;;;;;5073877;28;20047;-69
2022/12/08 00:30:57;;;;;;;5.03;0.57;;;2.70;99.90;;;;;;5081178;28;20051;-69
2022/12/08 00:33:23;;;;;;;5.57;0.65;;;2.80;99.90;;;;;;5072861;28;20036;-69
2022/12/08 00:35:49;;;;;;;3.42;0.90;;;2.80;99.90;;;;;;5056962;28;20475;-69
2022/12/08 00:38:15;;;;;;;1.77;0.52;;;2.70;99.90;;;;;;5076296;28;20576;-69
2022/12/08 00:40:46;;;;;;;2.58;0.70;;;2.90;99.90;;;;;;5056742;28;20059;-70
2022/12/08 00:43:13;;;;;;;2.33;0.90;;;2.80;99.90;;;;;;5059616;28;20517;-70
2022/12/08 00:45:39;;;;;;;3.50;0.90;;;2.80;99.90;;;;;;5061509;28;20040;-70
2022/12/08 00:48:06;;;;;;;4.90;0.80;;;2.90;99.90;;;;;;5074953;28;20044;-70
2022/12/08 00:50:31;;;;;;;6.80;0.80;;;2.90;99.90;;;;;;5081891;28;20044;-71
2022/12/08 00:52:57;;;;;;;5.75;0.90;;;2.90;99.90;;;;;;5080554;28;20510;-70
2022/12/08 00:55:23;;;;;;;5.75;1.00;;;2.90;99.90;;;;;;5083091;28;20444;-70
2022/12/08 00:57:48;;;;;;;4.43;0.80;;;2.90;99.90;;;;;;5062244;28;20602;-71
2022/12/08 01:00:14;;;;;;;6.93;1.40;;;3.00;99.90;;;;;;5081326;28;21554;-69
2022/12/08 01:02:40;;;;;;;10.73;1.30;;;3.00;99.90;;;;;;5077391;28;20520;-70
2022/12/08 01:05:06;;;;;;;7.10;1.05;;;3.00;99.90;;;;;;5081256;28;20078;-69
2022/12/08 01:07:32;;;;;;;7.45;0.77;;;3.00;99.90;;;;;;5080551;28;20138;-69
2022/12/08 01:09:58;;;;;;;1.95;0.95;;;3.00;99.90;;;;;;5062510;28;20130;-68
2022/12/08 01:12:24;;;;;;;3.58;0.65;;;3.00;99.90;;;;;;5061386;28;20036;-69
2022/12/08 01:14:49;;;;;;;6.55;1.00;;;3.10;99.90;;;;;;5064969;28;20075;-70
2022/12/08 01:17:15;;;;;;;4.72;0.70;;;3.10;99.90;;;;;;5056740;28;20517;-70
2022/12/08 01:19:40;;;;;;;5.68;1.35;;;2.90;99.90;;;;;;5065188;28;20059;-70
2022/12/08 01:22:07;;;;;;;3.42;0.70;;;2.90;99.90;;;;;;5074742;28;20240;-70
2022/12/08 01:24:32;;;;;;;2.90;0.75;;;2.90;99.90;;;;;;5057727;28;20113;-70
2022/12/08 01:26:58;;;;;;;3.33;0.73;;;2.90;99.90;;;;;;5077886;28;20403;-70
2022/12/08 01:29:26;;;;;;;3.85;0.80;;;2.80;99.90;;;;;;5061791;28;20480;-70
2022/12/08 01:31:51;;;;;;;4.35;0.80;;;2.90;99.90;;;;;;5063192;28;20036;-69
2022/12/08 01:34:17;;;;;;;10.38;1.60;;;2.90;99.90;;;;;;5079935;28;20122;-69
2022/12/08 01:36:43;;;;;;;3.95;0.75;;;2.90;99.90;;;;;;5081836;28;20829;-70
2022/12/08 01:39:14;;;;;;;4.70;0.90;;;2.80;99.90;;;;;;5061917;28;20118;-69
2022/12/08 01:41:42;;;;;;;6.72;0.82;;;2.80;99.90;;;;;;5061918;28;20094;-69
2022/12/08 01:44:09;;;;;;;3.42;0.80;;;2.80;99.90;;;;;;5059114;28;20051;-69
2022/12/08 01:46:43;;;;;;;3.10;0.68;;;2.90;99.90;;;;;;5083017;28;20036;-69
2022/12/08 01:49:20;;;;;;;4.05;1.40;;;2.90;99.90;;;;;;5078009;28;20071;-69
2022/12/08 01:52:06;;;;;;;3.75;1.90;;;2.90;99.90;;;;;;5054867;28;20052;-69
2022/12/08 01:54:37;;;;;;;5.32;0.85;;;3.00;99.90;;;;;;5083975;28;20127;-70
2022/12/08 01:57:15;;;;;;;2.40;0.70;;;3.00;99.90;;;;;;5076349;28;20040;-68
2022/12/08 01:59:46;;;;;;;3.20;0.70;;;3.00;99.90;;;;;;5080152;28;20044;-69
2022/12/08 02:02:12;;;;;;;5.15;1.00;;;3.00;99.90;;;;;;5081734;28;20102;-69
2022/12/08 02:04:38;;;;;;;5.05;0.45;;;3.10;99.90;;;;;;5080360;28;20037;-70
2022/12/08 02:07:06;;;;;;;1.33;0.38;;;3.20;99.90;;;;;;5059555;28;20054;-70
2022/12/08 02:09:32;;;;;;;1.55;0.50;;;3.10;99.90;;;;;;5060634;28;20086;-70
2022/12/08 02:11:59;;;;;;;3.03;0.93;;;3.20;99.90;;;;;;5080882;28;20546;-69
2022/12/08 02:14:24;;;;;;;2.55;0.73;;;3.20;99.90;;;;;;5061785;28;20075;-69
2022/12/08 02:17:13;;;;;;;6.05;1.30;;;3.10;99.90;;;;;;5057085;28;20056;-69
2022/12/08 02:20:09;;;;;;;1.05;0.55;;;3.20;99.90;;;;;;5012871;28;20048;-69
2022/12/08 02:22:39;;;;;;;3.03;0.63;;;3.10;99.90;;;;;;5060182;28;20067;-69
2022/12/08 02:25:38;;;;;;;4.68;0.77;;;3.20;99.90;;;;;;5078139;28;20040;-70
2022/12/08 02:28:28;;;;;;;3.92;0.75;;;3.20;99.90;;;;;;5080036;28;20083;-69
2022/12/08 02:31:18;;;;;;;7.55;0.85;;;3.10;99.90;;;;;;5082055;28;20062;-70
2022/12/08 02:34:02;;;;;;;8.63;0.95;;;3.10;99.90;;;;;;5079051;28;20293;-70
2022/12/08 02:36:40;;;;;;;1.52;0.40;;;3.10;99.90;;;;;;5082085;28;20549;-69
2022/12/08 02:39:21;;;;;;;1.17;0.47;;;3.00;99.90;;;;;;5077536;28;20052;-70
2022/12/08 02:41:58;;;;;;;3.83;0.50;;;2.80;99.90;;;;;;5080991;28;20147;-70
2022/12/08 02:44:31;;;;;;;2.83;0.40;;;2.80;99.90;;;;;;5061632;28;20279;-69
2022/12/08 02:47:09;;;;;;;;;;;2.70;99.90;;;;;;5062678;28;20052;-69
2022/12/08 02:49:34;;;;;;;1.77;0.70;;;2.80;99.90;;;;;;5081505;28;19927;-70
2022/12/08 02:52:12;;;;;;;3.05;0.57;;;2.80;99.90;;;;;;5062318;28;20040;-70
2022/12/08 02:54:40;;;;;;;3.13;0.50;;;2.60;99.90;;;;;;5059776;28;20048;-70
2022/12/08 02:57:30;;;;;;;8.23;0.90;;;2.70;99.90;;;;;;5079798;28;20044;-71
2022/12/08 03:00:12;;;;;;;5.05;0.75;;;2.60;99.90;;;;;;5079439;28;20052;-70
2022/12/08 03:03:09;;;;;;;4.50;0.47;;;2.60;99.90;;;;;;5054075;28;20053;-70
2022/12/08 03:05:59;;;;;;;7.10;1.95;;;2.60;99.90;;;;;;5080071;28;20064;-71
2022/12/08 03:08:43;;;;;;;9.48;0.70;;;2.60;99.90;;;;;;5077489;28;20060;-70
2022/12/08 03:11:34;;;;;;;4.63;0.60;;;2.60;99.90;;;;;;5077032;28;20119;-69
2022/12/08 03:14:04;;;;;;;3.20;1.05;;;2.50;99.90;;;;;;5078459;28;20047;-70
2022/12/08 03:16:33;;;;;;;4.32;0.50;;;2.60;99.90;;;;;;5080073;28;20044;-70
2022/12/08 03:19:17;;;;;;;3.45;0.60;;;2.50;99.90;;;;;;5076044;28;20044;-70
2022/12/08 03:21:46;;;;;;;2.17;0.63;;;2.50;99.90;;;;;;5079378;28;20083;-70
2022/12/08 03:24:14;;;;;;;3.55;0.85;;;2.50;99.90;;;;;;5074690;28;20044;-70
2022/12/08 03:26:55;;;;;;;3.60;0.70;;;2.50;99.90;;;;;;5078506;28;20055;-70
2022/12/08 03:29:21;;;;;;;5.60;0.95;;;2.50;99.90;;;;;;5079229;28;20053;-70
2022/12/08 03:31:56;;;;;;;10.88;1.25;;;2.40;99.90;;;;;;5076841;28;20067;-70
2022/12/08 03:34:25;;;;;;;3.00;1.08;;;2.50;99.90;;;;;;5077502;28;20086;-70
2022/12/08 03:36:50;;;;;;;5.88;0.80;;;2.40;99.90;;;;;;5075842;28;20055;-70
2022/12/08 03:39:16;;;;;;;3.15;0.60;;;2.40;99.90;;;;;;5079772;28;20040;-70
2022/12/08 03:41:42;;;;;;;7.78;0.60;;;2.30;99.90;;;;;;5079836;28;20063;-70
2022/12/08 03:44:07;;;;;;;8.73;0.80;;;2.50;99.90;;;;;;5077726;28;20036;-70
2022/12/08 03:46:33;;;;;;;3.53;0.47;;;2.30;99.90;;;;;;5078141;28;20058;-70
2022/12/08 03:48:59;;;;;;;7.13;1.58;;;2.40;99.90;;;;;;5060053;28;20504;-70
2022/12/08 03:51:26;;;;;;;1.65;0.40;;;2.30;99.90;;;;;;5073832;28;20052;-70
2022/12/08 03:53:51;;;;;;;4.20;0.60;;;2.40;99.90;;;;;;5072751;28;20575;-70
2022/12/08 03:56:34;;;;;;;1.88;0.75;;;2.30;99.90;;;;;;5081225;28;20052;-69
2022/12/08 03:59:00;;;;;;;2.03;0.50;;;2.30;99.90;;;;;;5080899;28;20060;-70
2022/12/08 04:01:26;;;;;;;3.53;0.70;;;2.30;99.90;;;;;;5059054;28;20500;-69
2022/12/08 04:03:52;;;;;;;7.22;1.10;;;2.30;99.90;;;;;;5082737;28;20038;-69
2022/12/08 04:06:19;;;;;;;4.15;0.68;;;2.30;99.90;;;;;;5078109;28;20043;-70
2022/12/08 04:08:45;;;;;;;2.80;0.95;;;2.30;99.90;;;;;;5078757;28;20093;-70
2022/12/08 04:11:11;;;;;;;5.45;0.70;;;2.30;99.90;;;;;;5079150;28;20097;-69
2022/12/08 04:13:38;;;;;;;3.13;0.70;;;2.30;99.90;;;;;;5059282;28;20468;-70
2022/12/08 04:16:05;;;;;;;4.90;0.80;;;2.20;99.90;;;;;;5061788;28;20076;-69
2022/12/08 04:18:31;;;;;;;2.08;0.60;;;2.40;99.90;;;;;;5061164;28;20339;-69
2022/12/08 04:20:57;;;;;;;2.85;0.73;;;2.40;99.90;;;;;;5076658;28;20555;-69
2022/12/08 04:23:23;;;;;;;2.03;0.50;;;2.30;99.90;;;;;;5073192;28;20044;-69
2022/12/08 04:25:50;;;;;;;0.95;0.40;;;2.30;99.90;;;;;;5080853;28;20047;-70
2022/12/08 04:28:16;;;;;;;4.13;1.08;;;2.40;99.90;;;;;;5080348;28;20120;-69
2022/12/08 04:30:42;;;;;;;3.30;0.60;;;2.40;99.90;;;;;;5084314;28;20499;-70
2022/12/08 04:33:08;;;;;;;4.63;0.80;;;2.40;99.90;;;;;;5074054;28;20044;-69
2022/12/08 04:35:33;;;;;;;1.42;0.60;;;2.40;99.90;;;;;;5057673;28;20048;-69
2022/12/08 04:37:59;;;;;;;7.95;1.00;;;2.50;99.90;;;;;;5079011;28;21288;-70
2022/12/08 04:40:25;;;;;;;3.70;1.00;;;2.40;99.90;;;;;;5078333;28;20748;-70
2022/12/08 04:42:50;;;;;;;5.45;1.02;;;2.50;99.90;;;;;;5078074;28;20406;-69
2022/12/08 04:45:16;;;;;;;2.85;1.00;;;2.50;99.90;;;;;;5077819;28;20040;-69
2022/12/08 04:47:42;;;;;;;2.60;0.90;;;2.40;99.90;;;;;;5060500;28;20044;-69
2022/12/08 04:50:08;;;;;;;3.05;1.00;;;2.40;99.90;;;;;;5059911;28;20100;-69
2022/12/08 04:52:34;;;;;;;7.30;2.25;;;2.40;99.90;;;;;;5076259;28;20040;-69
2022/12/08 04:55:00;;;;;;;6.65;1.08;;;2.40;99.90;;;;;;5058495;28;20052;-70
2022/12/08 04:57:26;;;;;;;4.45;0.95;;;2.40;99.90;;;;;;5059532;28;20713;-70
2022/12/08 04:59:52;;;;;;;2.97;1.08;;;2.50;99.90;;;;;;5060691;28;20096;-70
2022/12/08 05:02:17;;;;;;;4.05;0.70;;;2.50;99.90;;;;;;5077046;28;20048;-70
2022/12/08 05:04:43;;;;;;;1.63;0.70;;;2.40;99.90;;;;;;5074969;28;20760;-70
2022/12/08 05:07:09;;;;;;;2.25;0.60;;;2.50;99.90;;;;;;5077341;28;20495;-70
2022/12/08 05:09:34;;;;;;;3.08;0.80;;;2.40;99.90;;;;;;5077745;28;20040;-70
2022/12/08 05:12:00;;;;;;;5.80;0.77;;;2.30;99.90;;;;;;5060969;28;20048;-70
2022/12/08 05:14:25;;;;;;;1.42;0.70;;;2.40;99.90;;;;;;5058135;28;20056;-70
2022/12/08 05:16:51;;;;;;;2.92;0.70;;;2.30;99.90;;;;;;5047553;28;20048;-70
2022/12/08 05:19:17;;;;;;;2.63;0.75;;;2.40;99.90;;;;;;5041177;28;20048;-70
2022/12/08 05:21:43;;;;;;;4.20;1.17;;;2.30;99.90;;;;;;5058066;28;20097;-70
2022/12/08 05:24:09;;;;;;;8.48;1.25;;;2.30;99.90;;;;;;5074574;28;20040;-70
2022/12/08 05:26:35;;;;;;;39.58;25.55;;;2.20;99.90;;;;;;5069760;28;20104;-70
2022/12/08 05:29:01;;;;;;;25.17;13.35;;;2.20;99.90;;;;;;5055311;28;20538;-71
2022/12/08 05:31:26;;;;;;;26.20;16.15;;;2.30;99.90;;;;;;5062058;28;20075;-70
2022/12/08 05:33:52;;;;;;;26.55;16.27;;;2.20;99.90;;;;;;5059939;28;20127;-70
2022/12/08 05:36:18;;;;;;;13.32;8.07;;;2.30;99.90;;;;;;5081499;28;20035;-70
2022/12/08 05:38:45;;;;;;;5.38;1.20;;;2.20;99.90;;;;;;5082081;28;20044;-70
2022/12/08 05:41:14;;;;;;;4.65;1.05;;;2.30;99.90;;;;;;5061675;28;20143;-70
2022/12/08 05:43:40;;;;;;;5.20;1.10;;;2.20;99.90;;;;;;5080478;28;20052;-69
2022/12/08 05:46:07;;;;;;;6.28;1.30;;;2.20;99.90;;;;;;5079426;28;20319;-70
2022/12/08 05:48:33;;;;;;;4.88;1.00;;;2.30;99.90;;;;;;5080234;28;20075;-70
2022/12/08 05:51:00;;;;;;;4.68;1.10;;;2.40;99.90;;;;;;5064721;28;20040;-69
2022/12/08 05:53:25;;;;;;;5.72;0.80;;;2.30;99.90;;;;;;5058276;28;20044;-70
2022/12/08 05:55:51;;;;;;;4.88;0.80;;;2.50;99.90;;;;;;5081100;28;20511;-70
2022/12/08 05:58:20;;;;;;;11.48;1.40;;;2.50;99.90;;;;;;5063339;28;20032;-69
2022/12/08 06:00:46;;;;;;;7.15;0.90;;;2.40;99.90;;;;;;5076045;28;20062;-70
2022/12/08 06:03:14;;;;;;;9.30;0.80;;;2.40;99.90;;;;;;5076991;28;20066;-70
2022/12/08 06:05:40;;;;;;;3.13;0.80;;;2.40;99.90;;;;;;5057987;28;20182;-70
2022/12/08 06:08:06;;;;;;;6.32;1.10;;;2.40;99.90;;;;;;5079392;28;20055;-71
2022/12/08 06:10:32;;;;;;;5.30;1.10;;;2.50;99.90;;;;;;5059395;28;20438;-69
2022/12/08 06:12:57;;;;;;;4.20;0.85;;;2.40;99.90;;;;;;5061023;28;20036;-70
2022/12/08 06:15:23;;;;;;;7.25;0.90;;;2.50;99.90;;;;;;5077995;28;20047;-70
2022/12/08 06:17:51;;;;;;;5.28;0.88;;;2.30;99.90;;;;;;5061118;28;20059;-71
2022/12/08 06:20:17;;;;;;;8.07;0.95;;;2.30;99.90;;;;;;5060301;28;20089;-70
2022/12/08 06:22:43;;;;;;;5.25;1.27;;;2.30;99.90;;;;;;5082880;28;20044;-70
2022/12/08 06:25:09;;;;;;;9.50;2.30;;;2.30;99.90;;;;;;5058123;28;20138;-71
2022/12/08 06:27:34;;;;;;;6.28;1.70;;;2.20;99.90;;;;;;5081017;28;20398;-70
2022/12/08 06:30:00;;;;;;;10.15;2.20;;;2.20;99.90;;;;;;5079780;28;20032;-70
2022/12/08 06:32:26;;;;;;;12.45;2.58;;;2.20;99.90;;;;;;5065175;28;20059;-70
2022/12/08 06:34:52;;;;;;;8.30;1.92;;;2.20;99.90;;;;;;5095873;28;20040;-70
2022/12/08 06:37:18;;;;;;;7.18;1.90;;;2.20;99.90;;;;;;5079058;28;20111;-70
2022/12/08 06:39:44;;;;;;;4.10;0.90;;;2.20;99.90;;;;;;5099326;28;20042;-70
2022/12/08 06:44:54;;;;;;;10.90;1.40;;;2.00;99.90;;;;;;5060000;28;20356;-73
2022/12/08 06:47:21;;;;;;;11.25;1.25;;;2.00;99.90;;;;;;5057089;28;20043;-71
2022/12/08 06:49:47;;;;;;;7.38;2.30;;;2.00;99.90;;;;;;5077215;28;20083;-73
2022/12/08 06:52:12;;;;;;;11.80;2.08;;;1.90;99.90;;;;;;5074781;28;20859;-73
2022/12/08 06:54:38;;;;;;;5.97;1.08;;;1.90;99.90;;;;;;5072219;28;20263;-73
2022/12/08 06:57:04;;;;;;;14.60;1.70;;;2.00;99.90;;;;;;5071411;28;20152;-72
2022/12/08 06:59:29;;;;;;;4.95;1.27;;;1.90;99.90;;;;;;5057898;28;20388;-73
2022/12/08 07:01:56;;;;;;;8.88;2.22;;;1.80;99.90;;;;;;5071928;28;20036;-74
2022/12/08 07:04:21;;;;;;;6.45;2.05;;;1.80;99.90;;;;;;5058361;28;20051;-72
2022/12/08 07:06:47;;;;;;;9.07;2.60;;;1.90;99.90;;;;;;5059393;28;20497;-72
2022/12/08 07:09:13;;;;;;;10.68;2.97;;;1.80;99.90;;;;;;5077056;28;20431;-74
2022/12/08 07:11:38;;;;;;;10.43;4.00;;;1.70;99.90;;;;;;5057365;28;20494;-72
2022/12/08 07:14:04;;;;;;;9.73;5.90;;;1.80;99.90;;;;;;5074841;28;20048;-70
2022/12/08 07:16:30;;;;;;;15.20;5.53;;;1.90;99.90;;;;;;5061694;28;20116;-72
2022/12/08 07:18:55;;;;;;;10.23;4.60;;;1.80;99.90;;;;;;5059879;28;20054;-70
2022/12/08 07:21:21;;;;;;;10.50;5.72;;;1.90;99.90;;;;;;5059561;28;20193;-70
2022/12/08 07:23:48;;;;;;;7.53;3.38;;;1.70;99.90;;;;;;5079523;28;21083;-69
2022/12/08 07:26:14;;;;;;;11.55;3.25;;;1.70;99.90;;;;;;5060537;28;20044;-70
2022/12/08 07:28:41;;;;;;;12.75;4.13;;;1.70;99.90;;;;;;5077577;28;20545;-72
2022/12/08 07:31:14;;;;;;;7.45;2.40;;;1.60;99.90;;;;;;5081238;28;20168;-70
2022/12/08 07:33:40;;;;;;;;;;;1.60;99.90;;;;;;5076484;28;20561;-71
2022/12/08 07:36:06;;;;;;;16.42;6.35;;;1.70;99.90;;;;;;5076826;28;20007;-72
2022/12/08 07:38:31;;;;;;;7.65;3.33;;;1.60;99.90;;;;;;5074727;28;20690;-72
2022/12/08 07:40:57;;;;;;;9.68;2.08;;;1.60;99.90;;;;;;5062327;28;20422;-73
2022/12/08 07:43:23;;;;;;;4.28;2.20;;;1.50;99.90;;;;;;5075926;28;20143;-72
2022/12/08 07:45:49;;;;;;;7.93;2.58;;;1.60;99.90;;;;;;5079175;28;20048;-74
2022/12/08 07:48:15;;;;;;;6.07;2.30;;;1.50;99.90;;;;;;5077510;28;20043;-73
2022/12/08 07:50:41;;;;;;;5.95;2.58;;;1.40;99.90;;;;;;5074527;28;20053;-72
2022/12/08 07:53:08;;;;;;;10.48;6.25;;;1.50;99.90;;;;;;5078649;28;20040;-72
2022/12/08 07:55:33;;;;;;;13.15;7.13;;;1.40;99.90;;;;;;5079764;28;20040;-72
2022/12/08 07:57:59;;;;;;;22.20;9.90;;;1.30;99.90;;;;;;5079275;28;20059;-72
2022/12/08 08:00:25;;;;;;;17.75;10.65;;;1.30;99.90;;;;;;5077854;28;20460;-72
2022/12/08 08:02:50;;;;;;;25.70;10.82;;;1.40;99.90;;;;;;5081866;28;20048;-72
2022/12/08 08:05:16;;;;;;;13.75;6.95;;;1.40;99.90;;;;;;5082161;28;20093;-72
2022/12/08 08:07:42;;;;;;;15.60;5.95;;;1.40;99.90;;;;;;5077711;28;20047;-72
2022/12/08 08:10:09;;;;;;;15.05;8.20;;;1.40;99.90;;;;;;5084341;28;20077;-72
2022/12/08 08:12:36;;;;;;;26.45;17.92;;;1.50;99.90;;;;;;5078112;28;20375;-72
2022/12/08 08:15:04;;;;;;;42.97;27.35;;;1.50;99.90;;;;;;5074660;28;20057;-72
2022/12/08 08:17:30;;;;;;;29.65;15.13;;;1.50;99.90;;;;;;5080455;28;20047;-72
2022/12/08 08:19:56;;;;;;;27.42;12.48;;;1.60;99.90;;;;;;5078924;28;20040;-72
2022/12/08 08:22:23;;;;;;;27.88;13.45;;;1.50;99.90;;;;;;5077193;28;20426;-72
2022/12/08 08:24:48;;;;;;;21.00;11.57;;;1.60;99.90;;;;;;5079622;28;20285;-72
2022/12/08 08:27:14;;;;;;;18.08;10.50;;;1.50;99.90;;;;;;5077810;28;20294;-72
2022/12/08 08:29:39;;;;;;;22.67;11.90;;;1.50;99.90;;;;;;5059337;28;20407;-72
2022/12/08 08:32:05;;;;;;;17.58;10.45;;;1.60;99.90;;;;;;5080810;28;20040;-73
2022/12/08 08:34:31;;;;;;;13.40;6.95;;;1.70;99.90;;;;;;5057321;28;20037;-72
2022/12/08 08:36:56;;;;;;;15.45;6.97;;;1.70;99.90;;;;;;5081275;28;20063;-72
2022/12/08 08:39:22;;;;;;;15.48;8.18;;;1.70;99.90;;;;;;5079690;28;20044;-71
2022/12/08 08:41:48;;;;;;;19.95;8.38;;;1.90;99.90;;;;;;5073682;28;20036;-72
2022/12/08 08:44:14;;;;;;;14.27;4.82;;;1.90;99.90;;;;;;5080702;28;20051;-72
2022/12/08 08:46:40;;;;;;;12.73;2.70;;;1.90;99.90;;;;;;5074480;28;20071;-71
2022/12/08 08:49:06;;;;;;;7.32;1.70;;;2.00;99.90;;;;;;5077905;28;20525;-71
2022/12/08 08:51:31;;;;;;;6.68;1.67;;;1.90;99.90;;;;;;5057772;28;20044;-71
2022/12/08 08:53:57;;;;;;;11.00;2.35;;;1.90;99.90;;;;;;5078248;28;20105;-72
2022/12/08 08:56:24;;;;;;;8.43;2.03;;;1.90;99.90;;;;;;5056373;28;20131;-72
2022/12/08 08:58:51;;;;;;;8.35;1.45;;;1.90;99.90;;;;;;5079710;28;20028;-71
2022/12/08 09:01:25;;;;;;;6.53;2.00;;;1.90;99.90;;;;;;5078027;28;20044;-72
2022/12/08 09:03:52;;;;;;;13.00;1.63;;;1.80;99.90;;;;;;5054366;28;20083;-71
2022/12/08 09:06:17;;;;;;;3.88;1.30;;;1.80;99.90;;;;;;5055228;28;20041;-71
2022/12/08 09:08:44;;;;;;;6.55;1.30;;;1.80;99.90;;;;;;5078844;28;20101;-72
2022/12/08 09:11:10;;;;;;;12.55;2.75;;;1.80;99.90;;;;;;5082663;28;20128;-71
2022/12/08 09:13:36;;;;;;;10.65;1.95;;;1.70;99.90;;;;;;5065310;28;20036;-72
2022/12/08 09:16:04;;;;;;;8.15;1.88;;;1.70;99.90;;;;;;5086714;28;20043;-72
2022/12/08 09:18:30;;;;;;;9.70;3.03;;;1.70;99.90;;;;;;5087855;28;20575;-73
2022/12/08 09:21:02;;;;;;;8.63;2.47;;;1.70;99.90;;;;;;5081858;28;20495;-73
2022/12/08 09:23:27;;;;;;;11.00;3.53;;;1.80;99.90;;;;;;5083694;28;20039;-73
2022/12/08 09:25:56;;;;;;;16.85;6.65;;;1.80;99.90;;;;;;5075379;28;20044;-72
2022/12/08 09:28:21;;;;;;;25.08;11.32;;;1.90;99.90;;;;;;5078082;28;20048;-73
2022/12/08 09:30:47;;;;;;;28.27;16.60;;;1.90;99.90;;;;;;5082320;28;20051;-72
2022/12/08 09:33:13;;;;;;;25.83;13.27;;;1.90;99.90;;;;;;5078768;28;20045;-72
2022/12/08 09:35:38;;;;;;;20.38;11.50;;;2.00;99.90;;;;;;5084347;28;20367;-72
2022/12/08 09:38:04;;;;;;;21.40;8.80;;;2.10;99.90;;;;;;5081006;28;20068;-72
2022/12/08 09:40:33;;;;;;;14.70;6.72;;;2.20;99.90;;;;;;5080127;28;20083;-72
2022/12/08 09:43:21;;;;;;;13.60;5.82;;;2.10;99.90;;;;;;5082369;28;20471;-72
2022/12/08 09:45:48;;;;;;;9.93;6.00;;;2.20;99.90;;;;;;5080029;28;20048;-71
2022/12/08 09:48:20;;;;;;;18.13;7.82;;;2.20;99.90;;;;;;5081406;28;20390;-71
2022/12/08 09:50:52;;;;;;;17.10;9.73;;;2.20;99.90;;;;;;5080664;28;20053;-72
2022/12/08 09:53:23;;;;;;;20.10;8.15;;;2.10;99.90;;;;;;5064179;28;20051;-71
2022/12/08 09:56:14;;;;;;;20.73;9.18;;;2.20;99.90;;;;;;5079201;28;20139;-72
2022/12/08 09:58:57;;;;;;;16.95;8.48;;;2.20;99.90;;;;;;5082864;28;20044;-73
2022/12/08 10:01:28;;;;;;;16.90;7.25;;;2.20;99.90;;;;;;5082924;28;20042;-72
2022/12/08 10:03:55;;;;;;;9.77;5.70;;;2.20;99.90;;;;;;5081016;28;20048;-72
2022/12/08 10:06:32;;;;;;;14.95;4.70;;;2.10;99.90;;;;;;5083297;28;20127;-72
2022/12/08 10:09:18;;;;;;;16.48;5.53;;;2.30;99.90;;;;;;5079347;28;20136;-72
2022/12/08 10:11:55;;;;;;;18.33;6.35;;;2.20;99.90;;;;;;5056424;28;20514;-71
2022/12/08 10:14:45;;;;;;;18.35;8.15;;;2.30;99.90;;;;;;5082885;28;21007;-72
2022/12/08 10:17:43;;;;;;;21.95;8.00;;;2.30;99.90;;;;;;5077763;28;20516;-72
2022/12/08 10:20:09;;;;;;;13.32;4.88;;;2.40;99.90;;;;;;5083962;28;20048;-72
2022/12/08 10:22:35;;;;;;;10.65;5.40;;;2.40;99.90;;;;;;5057844;28;20043;-72
2022/12/08 10:25:19;;;;;;;16.13;6.03;;;2.50;99.90;;;;;;5080076;28;20047;-73
2022/12/08 10:27:50;;;;;;;13.95;5.97;;;2.50;99.90;;;;;;5067754;28;20105;-72
2022/12/08 10:30:17;;;;;;;14.77;6.97;;;2.40;99.90;;;;;;5080974;28;20044;-72
2022/12/08 10:32:47;;;;;;;9.65;4.10;;;2.40;99.90;;;;;;5082808;28;20073;-72
2022/12/08 10:35:16;;;;;;;7.32;2.17;;;2.40;99.90;;;;;;5078624;28;20051;-72
2022/12/08 10:37:57;;;;;;;4.68;2.05;;;2.40;99.90;;;;;;5080130;28;20455;-72
2022/12/08 10:40:28;;;;;;;7.25;2.10;;;2.40;99.90;;;;;;5055334;28;20144;-72
2022/12/08 10:42:56;;;;;;;8.02;2.80;;;2.50;99.90;;;;;;5078539;28;20040;-72
2022/12/08 10:45:29;;;;;;;9.25;3.95;;;2.50;99.90;;;;;;5057105;28;20134;-72
2022/12/08 10:48:04;;;;;;;7.88;2.80;;;2.60;99.90;;;;;;5082343;28;20078;-72
2022/12/08 10:50:52;;;;;;;3.85;2.00;;;2.60;99.90;;;;;;5082326;28;20527;-72
2022/12/08 10:53:26;;;;;;;8.27;1.83;;;2.60;99.90;;;;;;5078291;28;20047;-72
2022/12/08 10:56:01;;;;;;;6.00;1.35;;;2.70;99.90;;;;;;5084556;28;20047;-73
2022/12/08 10:58:32;;;;;;;5.50;1.55;;;2.80;99.90;;;;;;5059794;28;20143;-73
2022/12/08 11:01:09;;;;;;;8.48;1.98;;;2.80;99.90;;;;;;5082825;28;20036;-73
2022/12/08 11:03:44;;;;;;;6.20;1.90;;;3.00;99.90;;;;;;5060718;28;20227;-74
2022/12/08 11:06:15;;;;;;;8.43;1.50;;;3.10;99.90;;;;;;5057207;28;20493;-73
2022/12/08 11:09:02;;;;;;;4.45;1.65;;;3.10;99.90;;;;;;5056365;28;20590;-73
2022/12/08 11:11:57;;;;;;;6.47;1.40;;;3.20;99.90;;;;;;5081673;28;20335;-74
2022/12/08 11:14:43;;;;;;;3.15;1.17;;;3.30;99.90;;;;;;5065050;28;20047;-74
2022/12/08 11:17:12;;;;;;;2.80;1.00;;;3.30;99.90;;;;;;5083518;28;20145;-74
2022/12/08 11:19:44;;;;;;;6.53;1.40;;;3.40;99.90;;;;;;5053429;28;20041;-74
2022/12/08 11:22:24;;;;;;;5.32;1.40;;;3.60;99.90;;;;;;5081711;28;20402;-74
2022/12/08 11:25:09;;;;;;;5.78;1.20;;;3.70;99.90;;;;;;5080978;28;20052;-73
2022/12/08 11:27:42;;;;;;;4.28;0.80;;;3.70;99.90;;;;;;5082048;28;20058;-73
2022/12/08 11:30:18;;;;;;;2.87;1.23;;;3.90;99.90;;;;;;5077990;28;20078;-73
2022/12/08 11:32:49;;;;;;;5.95;1.02;;;4.00;99.90;;;;;;5055216;28;20341;-74
2022/12/08 11:35:36;;;;;;;4.85;1.23;;;4.10;99.90;;;;;;5081329;28;20403;-74
2022/12/08 11:38:09;;;;;;;4.20;0.98;;;4.20;99.90;;;;;;5081256;28;20143;-74
2022/12/08 11:40:37;;;;;;;7.75;1.13;;;4.40;99.90;;;;;;5077105;28;20595;-74
2022/12/08 11:43:24;;;;;;;3.88;0.63;;;4.40;99.90;;;;;;5080570;28;20418;-73
2022/12/08 11:45:57;;;;;;;2.75;0.80;;;4.40;99.90;;;;;;5084152;28;20051;-73
2022/12/08 11:48:32;;;;;;;3.83;0.77;;;4.30;99.90;;;;;;5081763;28;20047;-73
2022/12/08 11:51:01;;;;;;;5.50;1.20;;;4.30;99.90;;;;;;5081861;28;20101;-73
2022/12/08 11:53:42;;;;;;;2.83;0.90;;;4.20;99.90;;;;;;5056678;28;20135;-74
2022/12/08 11:56:23;;;;;;;11.65;2.85;;;4.20;99.90;;;;;;5081404;28;20700;-73
2022/12/08 11:58:56;;;;;;;3.10;0.60;;;4.10;99.90;;;;;;5077199;28;20553;-74
2022/12/08 12:01:25;;;;;;;3.07;0.47;;;4.00;99.90;;;;;;5081772;28;20048;-74
2022/12/08 12:04:11;;;;;;;3.92;0.80;;;4.00;99.90;;;;;;5082627;28;20498;-73
2022/12/08 12:07:11;;;;;;;2.47;0.80;;;3.90;99.90;;;;;;5079245;28;20507;-74
2022/12/08 12:09:58;;;;;;;4.32;1.20;;;3.70;99.90;;;;;;5081499;28;20051;-73
2022/12/08 12:12:45;;;;;;;3.22;0.82;;;3.70;99.90;;;;;;5081167;28;20074;-75
2022/12/08 12:15:20;;;;;;;5.47;1.00;;;3.70;99.90;;;;;;5054082;28;20549;-72
2022/12/08 12:18:09;;;;;;;5.50;1.40;;;3.70;99.90;;;;;;5081951;28;20056;-73
2022/12/08 12:20:52;;;;;;;3.60;0.60;;;3.70;99.90;;;;;;5079327;28;20040;-73
2022/12/08 12:23:28;;;;;;;6.87;0.70;;;3.80;99.90;;;;;;5077007;28;20753;-74
2022/12/08 12:26:06;;;;;;;2.30;0.60;;;3.80;99.90;;;;;;5082367;28;20063;-73
2022/12/08 12:28:56;;;;;;;4.80;0.80;;;4.00;99.90;;;;;;5080964;28;20487;-74
2022/12/08 12:31:33;;;;;;;2.35;0.70;;;4.20;99.90;;;;;;5080771;28;20431;-74
2022/12/08 12:34:14;;;;;;;5.03;0.70;;;4.10;99.90;;;;;;5079943;28;20040;-74
2022/12/08 12:37:06;;;;;;;3.33;0.65;;;4.30;99.90;;;;;;5078077;28;20651;-73
2022/12/08 12:39:44;;;;;;;4.03;0.80;;;4.30;99.90;;;;;;5078100;28;20471;-73
2022/12/08 12:42:43;;;;;;;5.60;1.02;;;4.40;99.90;;;;;;5084968;28;20521;-73
2022/12/08 12:45:20;;;;;;;6.63;1.00;;;4.40;99.90;;;;;;5082752;28;20646;-73
2022/12/08 12:47:53;;;;;;;8.32;1.45;;;4.50;99.90;;;;;;5083534;28;20058;-73
2022/12/08 12:50:48;;;;;;;6.47;0.80;;;4.50;99.90;;;;;;5090937;28;20035;-72
2022/12/08 12:53:17;;;;;;;8.57;1.60;;;4.60;99.90;;;;;;5097865;28;20066;-72
2022/12/08 12:55:55;;;;;;;4.32;0.90;;;4.60;99.90;;;;;;5111520;28;20040;-73
2022/12/08 12:58:27;;;;;;;3.17;0.70;;;4.70;99.90;;;;;;5078326;28;20593;-72
2022/12/08 13:01:11;;;;;;;6.75;1.00;;;4.70;99.90;;;;;;5095632;28;20048;-74
2022/12/08 13:03:40;;;;;;;1.98;0.70;;;4.70;99.90;;;;;;5082867;28;20054;-73
2022/12/08 13:06:06;;;;;;;2.80;0.68;;;4.70;99.90;;;;;;5084153;28;20036;-73
2022/12/08 13:08:32;;;;;;;5.15;0.70;;;4.70;99.90;;;;;;5085199;28;20036;-73
2022/12/08 13:11:07;;;;;;;8.95;0.88;;;4.70;99.90;;;;;;5083850;28;20409;-73
2022/12/08 13:13:34;;;;;;;2.42;0.77;;;4.60;99.90;;;;;;5084509;28;20040;-72
2022/12/08 13:16:16;;;;;;;5.55;0.82;;;4.60;99.90;;;;;;5088685;28;20521;-73
2022/12/08 13:18:47;;;;;;;3.70;1.10;;;4.60;99.90;;;;;;5084173;28;20040;-73
2022/12/08 13:21:17;;;;;;;7.50;0.93;;;4.60;99.90;;;;;;5080990;28;20044;-73